sensor_id;sensor_type;location;lat;lon;timestamp;temperature;humidity
20171;DHT22;10245;51.344;6.620;2022-08-26T00:01:59;25.20;64.00
20171;DHT22;10245;51.344;6.620;2022-08-26T00:04:24;25.20;65.20
20171;DHT22;10245;51.344;6.620;2022-08-26T00:06:48;25.20;65.10
20171;DHT22;10245;51.344;6.620;2022-08-26T00:09:12;25.10;65.90
20171;DHT22;10245;51.344;6.620;2022-08-26T00:11:39;25.00;66.80
20171;DHT22;10245;51.344;6.620;2022-08-26T00:14:02;25.00;66.30
20171;DHT22;10245;51.344;6.620;2022-08-26T00:16:27;25.20;66.80
20171;DHT22;10245;51.344;6.620;2022-08-26T00:18:52;25.20;68.20
20171;DHT22;10245;51.344;6.620;2022-08-26T00:21:16;25.00;69.30
20171;DHT22;10245;51.344;6.620;2022-08-26T00:23:39;25.00;69.60
20171;DHT22;10245;51.344;6.620;2022-08-26T00:26:04;25.10;69.40
20171;DHT22;10245;51.344;6.620;2022-08-26T00:28:31;25.10;69.50
20171;DHT22;10245;51.344;6.620;2022-08-26T00:30:55;25.00;71.40
20171;DHT22;10245;51.344;6.620;2022-08-26T00:33:19;24.90;71.30
20171;DHT22;10245;51.344;6.620;2022-08-26T00:35:44;24.90;70.90
20171;DHT22;10245;51.344;6.620;2022-08-26T00:38:08;25.00;69.70
20171;DHT22;10245;51.344;6.620;2022-08-26T00:40:34;25.10;71.10
20171;DHT22;10245;51.344;6.620;2022-08-26T00:43:00;25.10;70.80
20171;DHT22;10245;51.344;6.620;2022-08-26T00:45:39;24.80;73.40
20171;DHT22;10245;51.344;6.620;2022-08-26T00:48:06;24.90;72.70
20171;DHT22;10245;51.344;6.620;2022-08-26T00:50:33;24.90;73.10
20171;DHT22;10245;51.344;6.620;2022-08-26T00:53:01;24.70;74.90
20171;DHT22;10245;51.344;6.620;2022-08-26T00:55:30;24.80;74.10
20171;DHT22;10245;51.344;6.620;2022-08-26T00:58:00;24.80;74.80
20171;DHT22;10245;51.344;6.620;2022-08-26T01:00:30;24.80;74.60
20171;DHT22;10245;51.344;6.620;2022-08-26T01:02:59;24.70;74.70
20171;DHT22;10245;51.344;6.620;2022-08-26T01:05:26;24.80;74.80
20171;DHT22;10245;51.344;6.620;2022-08-26T01:07:51;24.80;75.50
20171;DHT22;10245;51.344;6.620;2022-08-26T01:10:18;24.90;75.10
20171;DHT22;10245;51.344;6.620;2022-08-26T01:12:48;24.80;76.00
20171;DHT22;10245;51.344;6.620;2022-08-26T01:15:19;24.70;75.50
20171;DHT22;10245;51.344;6.620;2022-08-26T01:17:47;24.70;75.80
20171;DHT22;10245;51.344;6.620;2022-08-26T01:20:29;24.60;75.80
20171;DHT22;10245;51.344;6.620;2022-08-26T01:23:00;24.60;76.10
20171;DHT22;10245;51.344;6.620;2022-08-26T01:25:28;24.70;75.40
20171;DHT22;10245;51.344;6.620;2022-08-26T01:27:55;24.70;75.80
20171;DHT22;10245;51.344;6.620;2022-08-26T01:30:19;24.70;76.30
20171;DHT22;10245;51.344;6.620;2022-08-26T01:32:43;24.50;77.00
20171;DHT22;10245;51.344;6.620;2022-08-26T01:35:08;24.60;77.50
20171;DHT22;10245;51.344;6.620;2022-08-26T01:37:34;24.60;76.70
20171;DHT22;10245;51.344;6.620;2022-08-26T01:40:04;24.40;77.10
20171;DHT22;10245;51.344;6.620;2022-08-26T01:42:29;24.50;77.80
20171;DHT22;10245;51.344;6.620;2022-08-26T01:44:56;24.30;78.00
20171;DHT22;10245;51.344;6.620;2022-08-26T01:47:28;24.40;78.10
20171;DHT22;10245;51.344;6.620;2022-08-26T01:49:54;24.30;78.40
20171;DHT22;10245;51.344;6.620;2022-08-26T01:52:21;24.20;79.20
20171;DHT22;10245;51.344;6.620;2022-08-26T01:54:49;24.10;79.10
20171;DHT22;10245;51.344;6.620;2022-08-26T01:57:16;24.00;79.90
20171;DHT22;10245;51.344;6.620;2022-08-26T01:59:41;24.20;79.90
20171;DHT22;10245;51.344;6.620;2022-08-26T02:02:05;24.20;79.40
20171;DHT22;10245;51.344;6.620;2022-08-26T02:04:33;24.10;79.60
20171;DHT22;10245;51.344;6.620;2022-08-26T02:07:02;24.10;79.80
20171;DHT22;10245;51.344;6.620;2022-08-26T02:09:28;24.20;79.30
20171;DHT22;10245;51.344;6.620;2022-08-26T02:11:53;24.10;80.10
20171;DHT22;10245;51.344;6.620;2022-08-26T02:14:20;24.00;80.00
20171;DHT22;10245;51.344;6.620;2022-08-26T02:16:50;24.10;81.10
20171;DHT22;10245;51.344;6.620;2022-08-26T02:19:19;24.00;81.00
20171;DHT22;10245;51.344;6.620;2022-08-26T02:21:46;24.10;80.50
20171;DHT22;10245;51.344;6.620;2022-08-26T02:24:15;24.10;81.20
20171;DHT22;10245;51.344;6.620;2022-08-26T02:26:41;24.20;80.80
20171;DHT22;10245;51.344;6.620;2022-08-26T02:29:08;24.20;81.40
20171;DHT22;10245;51.344;6.620;2022-08-26T02:31:37;24.20;80.90
20171;DHT22;10245;51.344;6.620;2022-08-26T02:34:07;24.30;81.50
20171;DHT22;10245;51.344;6.620;2022-08-26T02:36:32;24.30;81.70
20171;DHT22;10245;51.344;6.620;2022-08-26T02:38:55;24.30;81.30
20171;DHT22;10245;51.344;6.620;2022-08-26T02:41:19;24.30;81.60
20171;DHT22;10245;51.344;6.620;2022-08-26T02:43:44;24.20;81.70
20171;DHT22;10245;51.344;6.620;2022-08-26T02:46:07;24.30;81.90
20171;DHT22;10245;51.344;6.620;2022-08-26T02:48:33;24.20;82.30
20171;DHT22;10245;51.344;6.620;2022-08-26T02:50:58;24.10;84.20
20171;DHT22;10245;51.344;6.620;2022-08-26T02:53:22;24.20;82.80
20171;DHT22;10245;51.344;6.620;2022-08-26T02:55:46;24.20;83.10
20171;DHT22;10245;51.344;6.620;2022-08-26T02:58:11;24.00;83.80
20171;DHT22;10245;51.344;6.620;2022-08-26T03:00:35;24.10;84.10
20171;DHT22;10245;51.344;6.620;2022-08-26T03:03:10;24.10;84.10
20171;DHT22;10245;51.344;6.620;2022-08-26T03:05:35;24.10;83.60
20171;DHT22;10245;51.344;6.620;2022-08-26T03:08:01;24.20;83.10
20171;DHT22;10245;51.344;6.620;2022-08-26T03:10:25;24.20;84.10
20171;DHT22;10245;51.344;6.620;2022-08-26T03:12:49;24.20;84.30
20171;DHT22;10245;51.344;6.620;2022-08-26T03:15:15;24.10;84.20
20171;DHT22;10245;51.344;6.620;2022-08-26T03:17:39;24.10;84.60
20171;DHT22;10245;51.344;6.620;2022-08-26T03:20:04;24.20;84.10
20171;DHT22;10245;51.344;6.620;2022-08-26T03:22:32;24.10;84.60
20171;DHT22;10245;51.344;6.620;2022-08-26T03:24:56;24.00;85.20
20171;DHT22;10245;51.344;6.620;2022-08-26T03:27:20;24.20;84.20
20171;DHT22;10245;51.344;6.620;2022-08-26T03:29:44;24.20;84.80
20171;DHT22;10245;51.344;6.620;2022-08-26T03:32:25;24.20;84.60
20171;DHT22;10245;51.344;6.620;2022-08-26T03:34:49;24.10;84.90
20171;DHT22;10245;51.344;6.620;2022-08-26T03:37:13;24.00;85.30
20171;DHT22;10245;51.344;6.620;2022-08-26T03:39:39;24.10;84.90
20171;DHT22;10245;51.344;6.620;2022-08-26T03:42:04;24.20;85.00
20171;DHT22;10245;51.344;6.620;2022-08-26T03:44:28;24.20;85.20
20171;DHT22;10245;51.344;6.620;2022-08-26T03:46:53;24.20;84.70
20171;DHT22;10245;51.344;6.620;2022-08-26T03:49:17;24.20;84.60
20171;DHT22;10245;51.344;6.620;2022-08-26T03:51:41;24.30;85.10
20171;DHT22;10245;51.344;6.620;2022-08-26T03:54:06;24.20;84.60
20171;DHT22;10245;51.344;6.620;2022-08-26T03:56:32;24.20;84.10
20171;DHT22;10245;51.344;6.620;2022-08-26T03:58:56;24.20;84.80
20171;DHT22;10245;51.344;6.620;2022-08-26T04:01:21;24.20;84.80
20171;DHT22;10245;51.344;6.620;2022-08-26T04:03:45;24.20;84.70
20171;DHT22;10245;51.344;6.620;2022-08-26T04:06:22;24.20;85.10
20171;DHT22;10245;51.344;6.620;2022-08-26T04:08:46;24.20;84.70
20171;DHT22;10245;51.344;6.620;2022-08-26T04:11:15;24.10;86.20
20171;DHT22;10245;51.344;6.620;2022-08-26T04:13:42;24.00;85.60
20171;DHT22;10245;51.344;6.620;2022-08-26T04:16:06;24.00;85.20
20171;DHT22;10245;51.344;6.620;2022-08-26T04:18:31;24.10;85.40
20171;DHT22;10245;51.344;6.620;2022-08-26T04:21:03;24.00;85.90
20171;DHT22;10245;51.344;6.620;2022-08-26T04:23:28;24.00;85.50
20171;DHT22;10245;51.344;6.620;2022-08-26T04:26:08;24.20;85.40
20171;DHT22;10245;51.344;6.620;2022-08-26T04:28:31;24.10;85.50
20171;DHT22;10245;51.344;6.620;2022-08-26T04:30:57;24.20;85.80
20171;DHT22;10245;51.344;6.620;2022-08-26T04:33:21;24.20;84.70
20171;DHT22;10245;51.344;6.620;2022-08-26T04:35:59;24.20;85.10
20171;DHT22;10245;51.344;6.620;2022-08-26T04:38:23;24.10;84.70
20171;DHT22;10245;51.344;6.620;2022-08-26T04:40:47;24.30;84.90
20171;DHT22;10245;51.344;6.620;2022-08-26T04:43:11;24.10;85.00
20171;DHT22;10245;51.344;6.620;2022-08-26T04:45:36;24.10;85.30
20171;DHT22;10245;51.344;6.620;2022-08-26T04:48:02;24.10;85.30
20171;DHT22;10245;51.344;6.620;2022-08-26T04:50:26;24.10;85.60
20171;DHT22;10245;51.344;6.620;2022-08-26T04:52:50;24.10;85.40
20171;DHT22;10245;51.344;6.620;2022-08-26T04:55:14;24.00;85.60
20171;DHT22;10245;51.344;6.620;2022-08-26T04:57:40;24.20;85.00
20171;DHT22;10245;51.344;6.620;2022-08-26T05:00:06;24.00;85.80
20171;DHT22;10245;51.344;6.620;2022-08-26T05:02:32;24.00;86.20
20171;DHT22;10245;51.344;6.620;2022-08-26T05:04:58;24.10;85.80
20171;DHT22;10245;51.344;6.620;2022-08-26T05:07:22;24.00;86.10
20171;DHT22;10245;51.344;6.620;2022-08-26T05:09:45;24.10;86.00
20171;DHT22;10245;51.344;6.620;2022-08-26T05:12:09;24.10;86.20
20171;DHT22;10245;51.344;6.620;2022-08-26T05:14:34;23.90;85.90
20171;DHT22;10245;51.344;6.620;2022-08-26T05:16:58;23.90;86.40
20171;DHT22;10245;51.344;6.620;2022-08-26T05:19:22;23.50;89.90
20171;DHT22;10245;51.344;6.620;2022-08-26T05:21:50;23.50;90.00
20171;DHT22;10245;51.344;6.620;2022-08-26T05:24:14;23.70;87.20
20171;DHT22;10245;51.344;6.620;2022-08-26T05:26:38;23.90;86.60
20171;DHT22;10245;51.344;6.620;2022-08-26T05:29:05;23.60;89.00
20171;DHT22;10245;51.344;6.620;2022-08-26T05:31:30;23.70;86.50
20171;DHT22;10245;51.344;6.620;2022-08-26T05:33:58;23.80;86.10
20171;DHT22;10245;51.344;6.620;2022-08-26T05:36:26;23.50;89.50
20171;DHT22;10245;51.344;6.620;2022-08-26T05:38:53;23.40;89.50
20171;DHT22;10245;51.344;6.620;2022-08-26T05:41:20;23.50;89.50
20171;DHT22;10245;51.344;6.620;2022-08-26T05:43:47;23.60;89.10
20171;DHT22;10245;51.344;6.620;2022-08-26T05:46:11;23.70;86.50
20171;DHT22;10245;51.344;6.620;2022-08-26T05:48:36;23.90;85.40
20171;DHT22;10245;51.344;6.620;2022-08-26T05:51:06;24.10;85.80
20171;DHT22;10245;51.344;6.620;2022-08-26T05:53:32;23.60;86.50
20171;DHT22;10245;51.344;6.620;2022-08-26T05:55:58;23.40;88.80
20171;DHT22;10245;51.344;6.620;2022-08-26T05:58:22;23.30;88.80
20171;DHT22;10245;51.344;6.620;2022-08-26T06:00:56;23.20;89.50
20171;DHT22;10245;51.344;6.620;2022-08-26T06:03:21;23.70;85.80
20171;DHT22;10245;51.344;6.620;2022-08-26T06:05:45;24.00;85.30
20171;DHT22;10245;51.344;6.620;2022-08-26T06:08:08;23.80;85.50
20171;DHT22;10245;51.344;6.620;2022-08-26T06:10:42;23.80;85.80
20171;DHT22;10245;51.344;6.620;2022-08-26T06:13:14;23.60;87.70
20171;DHT22;10245;51.344;6.620;2022-08-26T06:15:41;23.80;86.10
20171;DHT22;10245;51.344;6.620;2022-08-26T06:18:06;23.80;85.40
20171;DHT22;10245;51.344;6.620;2022-08-26T06:20:31;23.70;85.70
20171;DHT22;10245;51.344;6.620;2022-08-26T06:22:55;23.90;85.10
20171;DHT22;10245;51.344;6.620;2022-08-26T06:25:37;23.50;88.30
20171;DHT22;10245;51.344;6.620;2022-08-26T06:28:01;23.90;85.10
20171;DHT22;10245;51.344;6.620;2022-08-26T06:30:27;23.70;85.20
20171;DHT22;10245;51.344;6.620;2022-08-26T06:32:51;23.90;85.20
20171;DHT22;10245;51.344;6.620;2022-08-26T06:35:15;24.10;85.00
20171;DHT22;10245;51.344;6.620;2022-08-26T06:37:39;24.20;84.60
20171;DHT22;10245;51.344;6.620;2022-08-26T06:40:04;24.00;84.70
20171;DHT22;10245;51.344;6.620;2022-08-26T06:42:29;24.00;84.70
20171;DHT22;10245;51.344;6.620;2022-08-26T06:44:55;23.50;87.60
20171;DHT22;10245;51.344;6.620;2022-08-26T06:47:20;23.30;88.40
20171;DHT22;10245;51.344;6.620;2022-08-26T06:49:45;23.50;88.10
20171;DHT22;10245;51.344;6.620;2022-08-26T06:52:15;23.80;86.10
20171;DHT22;10245;51.344;6.620;2022-08-26T06:54:45;23.70;86.00
20171;DHT22;10245;51.344;6.620;2022-08-26T06:57:12;23.70;85.70
20171;DHT22;10245;51.344;6.620;2022-08-26T06:59:38;23.90;85.60
20171;DHT22;10245;51.344;6.620;2022-08-26T07:02:01;23.90;85.70
20171;DHT22;10245;51.344;6.620;2022-08-26T07:04:27;23.90;85.70
20171;DHT22;10245;51.344;6.620;2022-08-26T07:06:51;23.60;88.00
20171;DHT22;10245;51.344;6.620;2022-08-26T07:09:16;23.60;86.00
20171;DHT22;10245;51.344;6.620;2022-08-26T07:11:40;23.70;85.80
20171;DHT22;10245;51.344;6.620;2022-08-26T07:14:06;23.60;87.60
20171;DHT22;10245;51.344;6.620;2022-08-26T07:16:30;23.70;85.90
20171;DHT22;10245;51.344;6.620;2022-08-26T07:18:54;23.70;85.50
20171;DHT22;10245;51.344;6.620;2022-08-26T07:21:20;23.70;86.00
20171;DHT22;10245;51.344;6.620;2022-08-26T07:23:46;23.90;84.90
20171;DHT22;10245;51.344;6.620;2022-08-26T07:26:14;24.00;84.50
20171;DHT22;10245;51.344;6.620;2022-08-26T07:28:39;24.00;84.70
20171;DHT22;10245;51.344;6.620;2022-08-26T07:31:05;23.80;85.20
20171;DHT22;10245;51.344;6.620;2022-08-26T07:33:30;23.60;88.50
20171;DHT22;10245;51.344;6.620;2022-08-26T07:35:54;23.90;85.30
20171;DHT22;10245;51.344;6.620;2022-08-26T07:38:19;23.80;84.90
20171;DHT22;10245;51.344;6.620;2022-08-26T07:40:43;23.80;85.30
20171;DHT22;10245;51.344;6.620;2022-08-26T07:43:08;23.70;85.00
20171;DHT22;10245;51.344;6.620;2022-08-26T07:45:33;23.90;85.20
20171;DHT22;10245;51.344;6.620;2022-08-26T07:47:56;24.10;84.70
20171;DHT22;10245;51.344;6.620;2022-08-26T07:50:20;23.90;85.00
20171;DHT22;10245;51.344;6.620;2022-08-26T07:53:04;24.20;84.60
20171;DHT22;10245;51.344;6.620;2022-08-26T07:55:37;23.90;84.40
20171;DHT22;10245;51.344;6.620;2022-08-26T07:58:01;24.10;84.00
20171;DHT22;10245;51.344;6.620;2022-08-26T08:00:26;23.90;84.60
20171;DHT22;10245;51.344;6.620;2022-08-26T08:02:53;24.00;84.40
20171;DHT22;10245;51.344;6.620;2022-08-26T08:05:20;24.30;84.30
20171;DHT22;10245;51.344;6.620;2022-08-26T08:07:54;24.10;84.10
20171;DHT22;10245;51.344;6.620;2022-08-26T08:10:40;23.60;87.30
20171;DHT22;10245;51.344;6.620;2022-08-26T08:13:10;23.50;87.40
20171;DHT22;10245;51.344;6.620;2022-08-26T08:15:35;23.70;84.90
20171;DHT22;10245;51.344;6.620;2022-08-26T08:18:00;23.60;86.80
20171;DHT22;10245;51.344;6.620;2022-08-26T08:20:25;23.90;85.50
20171;DHT22;10245;51.344;6.620;2022-08-26T08:22:50;23.70;85.10
20171;DHT22;10245;51.344;6.620;2022-08-26T08:25:15;23.60;86.00
20171;DHT22;10245;51.344;6.620;2022-08-26T08:27:41;24.10;85.00
20171;DHT22;10245;51.344;6.620;2022-08-26T08:30:07;23.90;84.20
20171;DHT22;10245;51.344;6.620;2022-08-26T08:32:35;24.10;83.70
20171;DHT22;10245;51.344;6.620;2022-08-26T08:35:01;24.00;83.30
20171;DHT22;10245;51.344;6.620;2022-08-26T08:37:32;23.60;86.20
20171;DHT22;10245;51.344;6.620;2022-08-26T08:39:58;23.80;85.10
20171;DHT22;10245;51.344;6.620;2022-08-26T08:42:33;23.70;85.10
20171;DHT22;10245;51.344;6.620;2022-08-26T08:45:06;24.00;84.30
20171;DHT22;10245;51.344;6.620;2022-08-26T08:47:35;24.00;83.40
20171;DHT22;10245;51.344;6.620;2022-08-26T08:50:05;23.90;84.30
20171;DHT22;10245;51.344;6.620;2022-08-26T08:52:35;24.10;83.00
20171;DHT22;10245;51.344;6.620;2022-08-26T08:55:00;24.00;82.90
20171;DHT22;10245;51.344;6.620;2022-08-26T08:57:30;24.10;83.40
20171;DHT22;10245;51.344;6.620;2022-08-26T09:00:04;23.90;83.50
20171;DHT22;10245;51.344;6.620;2022-08-26T09:02:36;24.20;82.70
20171;DHT22;10245;51.344;6.620;2022-08-26T09:05:08;24.20;83.30
20171;DHT22;10245;51.344;6.620;2022-08-26T09:07:38;24.30;82.10
20171;DHT22;10245;51.344;6.620;2022-08-26T09:10:13;24.30;82.80
20171;DHT22;10245;51.344;6.620;2022-08-26T09:12:47;24.60;81.70
20171;DHT22;10245;51.344;6.620;2022-08-26T09:15:20;24.50;81.00
20171;DHT22;10245;51.344;6.620;2022-08-26T09:17:59;23.90;82.60
20171;DHT22;10245;51.344;6.620;2022-08-26T09:20:36;24.40;82.00
20171;DHT22;10245;51.344;6.620;2022-08-26T09:23:10;24.70;82.40
20171;DHT22;10245;51.344;6.620;2022-08-26T09:25:44;24.40;81.40
20171;DHT22;10245;51.344;6.620;2022-08-26T09:28:13;24.20;81.70
20171;DHT22;10245;51.344;6.620;2022-08-26T09:30:41;24.30;82.20
20171;DHT22;10245;51.344;6.620;2022-08-26T09:33:09;24.50;80.90
20171;DHT22;10245;51.344;6.620;2022-08-26T09:35:41;24.40;81.50
20171;DHT22;10245;51.344;6.620;2022-08-26T09:38:20;24.30;81.30
20171;DHT22;10245;51.344;6.620;2022-08-26T09:40:55;24.10;82.40
20171;DHT22;10245;51.344;6.620;2022-08-26T09:43:20;24.50;82.30
20171;DHT22;10245;51.344;6.620;2022-08-26T09:45:47;24.40;81.90
20171;DHT22;10245;51.344;6.620;2022-08-26T09:48:26;24.50;82.30
20171;DHT22;10245;51.344;6.620;2022-08-26T09:50:54;24.60;81.80
20171;DHT22;10245;51.344;6.620;2022-08-26T09:53:20;24.50;81.70
20171;DHT22;10245;51.344;6.620;2022-08-26T09:56:10;24.40;82.00
20171;DHT22;10245;51.344;6.620;2022-08-26T09:58:40;24.70;81.30
20171;DHT22;10245;51.344;6.620;2022-08-26T10:01:14;24.70;80.20
20171;DHT22;10245;51.344;6.620;2022-08-26T10:03:41;24.90;80.10
20171;DHT22;10245;51.344;6.620;2022-08-26T10:06:20;25.00;80.70
20171;DHT22;10245;51.344;6.620;2022-08-26T10:08:50;25.00;80.70
20171;DHT22;10245;51.344;6.620;2022-08-26T10:11:18;25.00;79.30
20171;DHT22;10245;51.344;6.620;2022-08-26T10:13:47;24.80;78.40
20171;DHT22;10245;51.344;6.620;2022-08-26T10:16:19;24.60;79.60
20171;DHT22;10245;51.344;6.620;2022-08-26T10:18:52;24.70;79.60
20171;DHT22;10245;51.344;6.620;2022-08-26T10:21:25;24.90;79.50
20171;DHT22;10245;51.344;6.620;2022-08-26T10:23:53;24.90;78.50
20171;DHT22;10245;51.344;6.620;2022-08-26T10:26:22;24.70;78.90
20171;DHT22;10245;51.344;6.620;2022-08-26T10:28:55;25.10;80.70
20171;DHT22;10245;51.344;6.620;2022-08-26T10:31:27;25.10;79.00
20171;DHT22;10245;51.344;6.620;2022-08-26T10:34:01;25.30;79.60
20171;DHT22;10245;51.344;6.620;2022-08-26T10:36:26;25.30;79.20
20171;DHT22;10245;51.344;6.620;2022-08-26T10:39:37;25.20;78.30
20171;DHT22;10245;51.344;6.620;2022-08-26T10:42:08;25.00;78.60
20171;DHT22;10245;51.344;6.620;2022-08-26T10:44:40;25.10;78.60
20171;DHT22;10245;51.344;6.620;2022-08-26T10:47:14;25.20;78.90
20171;DHT22;10245;51.344;6.620;2022-08-26T10:49:40;25.20;79.10
20171;DHT22;10245;51.344;6.620;2022-08-26T10:52:11;25.30;79.10
20171;DHT22;10245;51.344;6.620;2022-08-26T10:54:42;25.20;80.50
20171;DHT22;10245;51.344;6.620;2022-08-26T10:57:12;25.30;79.70
20171;DHT22;10245;51.344;6.620;2022-08-26T10:59:47;25.40;79.20
20171;DHT22;10245;51.344;6.620;2022-08-26T11:02:22;25.40;80.30
20171;DHT22;10245;51.344;6.620;2022-08-26T11:04:53;25.40;78.90
20171;DHT22;10245;51.344;6.620;2022-08-26T11:07:37;25.40;79.70
20171;DHT22;10245;51.344;6.620;2022-08-26T11:10:09;25.40;78.40
20171;DHT22;10245;51.344;6.620;2022-08-26T11:12:56;25.30;78.30
20171;DHT22;10245;51.344;6.620;2022-08-26T11:18:43;25.10;78.30
20171;DHT22;10245;51.344;6.620;2022-08-26T11:24:40;25.10;77.90
20171;DHT22;10245;51.344;6.620;2022-08-26T11:27:08;25.30;78.30
20171;DHT22;10245;51.344;6.620;2022-08-26T11:29:58;25.20;79.40
20171;DHT22;10245;51.344;6.620;2022-08-26T11:32:25;24.80;78.40
20171;DHT22;10245;51.344;6.620;2022-08-26T11:34:57;25.20;79.10
20171;DHT22;10245;51.344;6.620;2022-08-26T11:37:24;25.20;77.30
20171;DHT22;10245;51.344;6.620;2022-08-26T11:39:54;25.30;76.80
20171;DHT22;10245;51.344;6.620;2022-08-26T11:42:25;25.40;77.60
20171;DHT22;10245;51.344;6.620;2022-08-26T11:44:54;25.70;78.40
20171;DHT22;10245;51.344;6.620;2022-08-26T11:47:26;25.50;78.00
20171;DHT22;10245;51.344;6.620;2022-08-26T11:50:07;25.70;77.30
20171;DHT22;10245;51.344;6.620;2022-08-26T11:52:36;25.30;76.40
20171;DHT22;10245;51.344;6.620;2022-08-26T11:55:06;25.60;77.10
20171;DHT22;10245;51.344;6.620;2022-08-26T11:57:33;25.50;75.70
20171;DHT22;10245;51.344;6.620;2022-08-26T12:00:05;25.60;75.50
20171;DHT22;10245;51.344;6.620;2022-08-26T12:02:35;25.60;75.40
20171;DHT22;10245;51.344;6.620;2022-08-26T12:04:59;25.30;76.20
20171;DHT22;10245;51.344;6.620;2022-08-26T12:07:27;25.40;76.30
20171;DHT22;10245;51.344;6.620;2022-08-26T12:09:56;25.50;76.30
20171;DHT22;10245;51.344;6.620;2022-08-26T12:12:27;25.70;75.90
20171;DHT22;10245;51.344;6.620;2022-08-26T12:15:12;25.60;76.10
20171;DHT22;10245;51.344;6.620;2022-08-26T12:17:37;25.80;76.30
20171;DHT22;10245;51.344;6.620;2022-08-26T12:20:02;25.80;75.80
20171;DHT22;10245;51.344;6.620;2022-08-26T12:22:31;25.80;76.90
20171;DHT22;10245;51.344;6.620;2022-08-26T12:24:58;25.60;75.50
20171;DHT22;10245;51.344;6.620;2022-08-26T12:27:26;25.20;76.60
20171;DHT22;10245;51.344;6.620;2022-08-26T12:30:02;25.40;76.30
20171;DHT22;10245;51.344;6.620;2022-08-26T12:32:29;25.60;76.10
20171;DHT22;10245;51.344;6.620;2022-08-26T12:34:53;25.50;75.80
20171;DHT22;10245;51.344;6.620;2022-08-26T12:37:17;25.40;76.00
20171;DHT22;10245;51.344;6.620;2022-08-26T12:39:43;25.50;76.70
20171;DHT22;10245;51.344;6.620;2022-08-26T12:42:22;25.60;76.10
20171;DHT22;10245;51.344;6.620;2022-08-26T12:45:00;25.60;77.90
20171;DHT22;10245;51.344;6.620;2022-08-26T12:47:28;25.50;77.50
20171;DHT22;10245;51.344;6.620;2022-08-26T12:50:07;25.30;78.70
20171;DHT22;10245;51.344;6.620;2022-08-26T12:52:49;25.10;79.80
20171;DHT22;10245;51.344;6.620;2022-08-26T12:55:21;25.10;80.90
20171;DHT22;10245;51.344;6.620;2022-08-26T12:57:45;25.10;80.70
20171;DHT22;10245;51.344;6.620;2022-08-26T13:00:40;25.30;80.60
20171;DHT22;10245;51.344;6.620;2022-08-26T13:06:24;25.30;80.30
20171;DHT22;10245;51.344;6.620;2022-08-26T13:08:52;25.20;80.60
20171;DHT22;10245;51.344;6.620;2022-08-26T13:11:20;25.40;79.90
20171;DHT22;10245;51.344;6.620;2022-08-26T13:13:46;25.40;80.40
20171;DHT22;10245;51.344;6.620;2022-08-26T13:16:14;25.20;80.50
20171;DHT22;10245;51.344;6.620;2022-08-26T13:18:38;25.20;80.90
20171;DHT22;10245;51.344;6.620;2022-08-26T13:21:08;25.20;81.10
20171;DHT22;10245;51.344;6.620;2022-08-26T13:23:34;25.30;81.10
20171;DHT22;10245;51.344;6.620;2022-08-26T13:26:03;25.10;81.50
20171;DHT22;10245;51.344;6.620;2022-08-26T13:28:28;25.00;81.80
20171;DHT22;10245;51.344;6.620;2022-08-26T13:30:52;25.00;81.60
20171;DHT22;10245;51.344;6.620;2022-08-26T13:33:16;25.00;81.30
20171;DHT22;10245;51.344;6.620;2022-08-26T13:35:42;25.00;81.50
20171;DHT22;10245;51.344;6.620;2022-08-26T13:38:05;25.00;81.70
20171;DHT22;10245;51.344;6.620;2022-08-26T13:40:53;25.10;81.60
20171;DHT22;10245;51.344;6.620;2022-08-26T13:43:20;24.90;81.30
20171;DHT22;10245;51.344;6.620;2022-08-26T13:45:45;24.80;82.00
20171;DHT22;10245;51.344;6.620;2022-08-26T13:48:10;25.00;81.50
20171;DHT22;10245;51.344;6.620;2022-08-26T13:50:34;24.90;81.70
20171;DHT22;10245;51.344;6.620;2022-08-26T13:52:58;24.80;81.70
20171;DHT22;10245;51.344;6.620;2022-08-26T13:55:21;24.90;81.90
20171;DHT22;10245;51.344;6.620;2022-08-26T13:57:45;24.90;81.30
20171;DHT22;10245;51.344;6.620;2022-08-26T14:00:10;24.60;81.90
20171;DHT22;10245;51.344;6.620;2022-08-26T14:02:36;24.50;82.10
20171;DHT22;10245;51.344;6.620;2022-08-26T14:04:59;24.90;81.80
20171;DHT22;10245;51.344;6.620;2022-08-26T14:07:23;25.00;81.40
20171;DHT22;10245;51.344;6.620;2022-08-26T14:09:47;25.00;81.10
20171;DHT22;10245;51.344;6.620;2022-08-26T14:12:11;24.90;81.80
20171;DHT22;10245;51.344;6.620;2022-08-26T14:14:34;24.70;81.10
20171;DHT22;10245;51.344;6.620;2022-08-26T14:16:58;24.80;81.00
20171;DHT22;10245;51.344;6.620;2022-08-26T14:19:23;24.70;81.20
20171;DHT22;10245;51.344;6.620;2022-08-26T14:21:48;24.80;81.50
20171;DHT22;10245;51.344;6.620;2022-08-26T14:24:12;24.70;80.80
20171;DHT22;10245;51.344;6.620;2022-08-26T14:26:35;24.50;81.40
20171;DHT22;10245;51.344;6.620;2022-08-26T14:28:59;24.70;81.30
20171;DHT22;10245;51.344;6.620;2022-08-26T14:31:25;24.60;81.00
20171;DHT22;10245;51.344;6.620;2022-08-26T14:33:50;24.80;80.40
20171;DHT22;10245;51.344;6.620;2022-08-26T14:36:15;24.80;80.80
20171;DHT22;10245;51.344;6.620;2022-08-26T14:38:55;25.00;80.40
20171;DHT22;10245;51.344;6.620;2022-08-26T14:41:21;25.00;80.60
20171;DHT22;10245;51.344;6.620;2022-08-26T14:43:49;25.00;80.90
20171;DHT22;10245;51.344;6.620;2022-08-26T14:46:15;25.00;79.90
20171;DHT22;10245;51.344;6.620;2022-08-26T14:48:40;25.10;79.90
20171;DHT22;10245;51.344;6.620;2022-08-26T14:51:04;24.90;81.40
20171;DHT22;10245;51.344;6.620;2022-08-26T14:53:29;25.10;80.50
20171;DHT22;10245;51.344;6.620;2022-08-26T14:56:10;25.10;79.40
20171;DHT22;10245;51.344;6.620;2022-08-26T14:58:37;24.80;80.00
20171;DHT22;10245;51.344;6.620;2022-08-26T15:01:01;24.90;81.00
20171;DHT22;10245;51.344;6.620;2022-08-26T15:03:25;24.70;80.30
20171;DHT22;10245;51.344;6.620;2022-08-26T15:05:49;25.00;79.30
20171;DHT22;10245;51.344;6.620;2022-08-26T15:08:13;24.60;80.10
20171;DHT22;10245;51.344;6.620;2022-08-26T15:10:39;24.40;79.70
20171;DHT22;10245;51.344;6.620;2022-08-26T15:13:02;24.40;80.40
20171;DHT22;10245;51.344;6.620;2022-08-26T15:15:26;24.70;80.50
20171;DHT22;10245;51.344;6.620;2022-08-26T15:17:50;24.70;80.40
20171;DHT22;10245;51.344;6.620;2022-08-26T15:20:14;24.80;79.70
20171;DHT22;10245;51.344;6.620;2022-08-26T15:22:39;24.90;79.40
20171;DHT22;10245;51.344;6.620;2022-08-26T15:25:04;24.70;79.10
20171;DHT22;10245;51.344;6.620;2022-08-26T15:27:30;24.90;79.50
20171;DHT22;10245;51.344;6.620;2022-08-26T15:29:54;24.70;79.30
20171;DHT22;10245;51.344;6.620;2022-08-26T15:32:18;24.90;79.10
20171;DHT22;10245;51.344;6.620;2022-08-26T15:34:41;24.80;78.80
20171;DHT22;10245;51.344;6.620;2022-08-26T15:37:05;25.00;78.30
20171;DHT22;10245;51.344;6.620;2022-08-26T15:39:29;24.90;78.30
20171;DHT22;10245;51.344;6.620;2022-08-26T15:41:53;24.80;79.10
20171;DHT22;10245;51.344;6.620;2022-08-26T15:44:18;25.00;78.90